Time;durP1;ratioP1;P1;durP2;ratioP2;P2;SDS_P1;SDS_P2;PMS_P1;PMS_P2;Temp;Humidity;BMP_temperature;BMP_pressure;BME280_temperature;BME280_humidity;BME280_pressure;Samples;Min_cycle;Max_cycle;Signal;HPM_P1;HPM_P2
2023/10/17 00:12:33;;;;;;;11.20;7.15;;;18.10;91.20;;;;;;4562761;19;20025;-70
2023/10/17 00:14:11;;;;;;;14.50;8.35;;;18.10;91.20;;;;;;4594383;19;20429;-70
2023/10/17 00:15:46;;;;;;;11.77;6.60;;;18.10;91.30;;;;;;4594145;19;20552;-70
2023/10/17 00:17:21;;;;;;;10.15;5.80;;;18.10;91.30;;;;;;4594495;19;20022;-70
2023/10/17 00:19:01;;;;;;;11.15;7.00;;;18.10;91.30;;;;;;4594382;19;20019;-70
2023/10/17 00:20:39;;;;;;;11.60;9.63;;;18.00;91.30;;;;;;4592873;19;20015;-70
2023/10/17 00:22:18;;;;;;;12.68;9.18;;;18.10;91.40;;;;;;4593423;19;20025;-70
2023/10/17 00:23:54;;;;;;;12.80;8.20;;;18.10;91.40;;;;;;4592924;19;20014;-70
2023/10/17 00:25:28;;;;;;;12.55;7.22;;;18.00;91.40;;;;;;4594343;19;20330;-70
2023/10/17 00:27:03;;;;;;;11.10;7.40;;;18.10;91.40;;;;;;4594309;19;19999;-70
2023/10/17 00:28:38;;;;;;;11.57;6.65;;;18.10;91.40;;;;;;4594158;19;20029;-70
2023/10/17 00:30:17;;;;;;;9.75;6.45;;;18.10;91.40;;;;;;4593939;19;20066;-70
2023/10/17 00:31:51;;;;;;;9.60;6.32;;;18.10;91.50;;;;;;4594331;19;20290;-70
2023/10/17 00:33:26;;;;;;;10.23;6.70;;;18.10;91.50;;;;;;4594047;19;20090;-70
2023/10/17 00:35:08;;;;;;;8.93;5.85;;;18.10;91.50;;;;;;4593838;19;20024;-70
2023/10/17 00:36:48;;;;;;;;;;;18.10;91.50;;;;;;4595068;19;20436;-70
2023/10/17 00:38:29;;;;;;;11.05;7.25;;;18.00;91.50;;;;;;4593887;19;19925;-70
2023/10/17 00:40:26;;;;;;;12.05;7.80;;;18.00;91.50;;;;;;4593813;19;20013;-70
2023/10/17 00:43:43;;;;;;;12.95;7.53;;;18.00;91.60;;;;;;4590927;19;20007;-70
2023/10/17 00:45:17;;;;;;;14.30;8.45;;;18.00;91.60;;;;;;4592871;19;19995;-70
2023/10/17 00:46:52;;;;;;;14.32;8.68;;;18.00;91.60;;;;;;4593410;19;20005;-70
2023/10/17 00:48:27;;;;;;;13.18;7.55;;;18.00;91.50;;;;;;4593230;19;20030;-70
2023/10/17 00:50:08;;;;;;;15.38;7.55;;;18.00;91.50;;;;;;4593052;19;20003;-70
2023/10/17 00:51:44;;;;;;;;;;;18.00;91.60;;;;;;4592758;19;20011;-70
2023/10/17 00:53:20;;;;;;;11.25;6.75;;;18.00;91.60;;;;;;4591749;19;19978;-70
2023/10/17 00:54:54;;;;;;;12.80;8.40;;;18.00;91.50;;;;;;4591726;19;20002;-70
2023/10/17 00:56:30;;;;;;;11.75;7.40;;;18.00;91.60;;;;;;4592556;19;20081;-70
2023/10/17 00:58:06;;;;;;;11.88;7.38;;;18.00;91.50;;;;;;4591722;19;20429;-70
2023/10/17 00:59:44;;;;;;;11.43;6.38;;;18.00;91.50;;;;;;4592840;19;20358;-70
2023/10/17 01:01:23;;;;;;;12.85;8.45;;;18.00;91.60;;;;;;4593228;19;20425;-70
2023/10/17 01:03:04;;;;;;;10.80;7.13;;;18.00;91.60;;;;;;4590584;19;20007;-70
2023/10/17 01:04:44;;;;;;;10.63;6.85;;;18.00;91.60;;;;;;4592648;19;20385;-70
2023/10/17 01:08:05;;;;;;;8.80;5.88;;;18.00;91.70;;;;;;4589889;19;20019;-70
2023/10/17 01:09:39;;;;;;;10.18;6.13;;;18.00;91.60;;;;;;4592762;19;20066;-70
2023/10/17 01:11:27;;;;;;;9.95;5.80;;;18.00;91.60;;;;;;4592557;19;20334;-70
2023/10/17 01:13:07;;;;;;;12.20;6.28;;;18.00;91.60;;;;;;4589869;19;20025;-70
2023/10/17 01:14:41;;;;;;;10.07;5.65;;;18.00;91.50;;;;;;4592578;19;20008;-70
2023/10/17 01:16:16;;;;;;;10.68;6.07;;;18.00;91.50;;;;;;4592618;19;20425;-70
2023/10/17 01:17:54;;;;;;;9.70;5.95;;;18.00;91.50;;;;;;4591036;19;20078;-70
2023/10/17 01:19:28;;;;;;;9.18;5.53;;;18.00;91.50;;;;;;4592079;19;20066;-70
2023/10/17 01:21:02;;;;;;;8.48;5.57;;;18.00;91.40;;;;;;4592558;19;20002;-70
2023/10/17 01:22:41;;;;;;;7.88;5.45;;;18.00;91.40;;;;;;4591774;19;20030;-70
2023/10/17 01:24:18;;;;;;;9.77;5.20;;;18.00;91.40;;;;;;4592380;19;20014;-70
2023/10/17 01:25:56;;;;;;;8.15;5.20;;;18.00;91.40;;;;;;4591207;19;20099;-70
2023/10/17 01:27:31;;;;;;;10.77;5.40;;;18.00;91.40;;;;;;4591993;19;20008;-70
2023/10/17 01:29:11;;;;;;;9.20;4.63;;;18.00;91.40;;;;;;4592468;19;20002;-70
2023/10/17 01:30:45;;;;;;;9.38;4.85;;;17.90;91.30;;;;;;4592456;19;20006;-70
2023/10/17 01:32:23;;;;;;;9.50;5.15;;;18.00;91.30;;;;;;4591528;19;20027;-70
2023/10/17 01:34:02;;;;;;;8.95;5.25;;;17.90;91.20;;;;;;4592244;19;20047;-70
2023/10/17 01:35:38;;;;;;;8.02;5.20;;;18.00;91.20;;;;;;4592187;19;20006;-70
2023/10/17 01:37:15;;;;;;;8.80;5.25;;;18.00;91.30;;;;;;4590963;19;20070;-70
2023/10/17 01:38:49;;;;;;;8.65;4.35;;;17.90;91.20;;;;;;4591525;19;19998;-70
2023/10/17 01:40:24;;;;;;;8.48;4.95;;;17.90;91.20;;;;;;4590543;19;19999;-70
2023/10/17 01:42:01;;;;;;;8.23;4.78;;;17.90;91.20;;;;;;4590308;19;20010;-70
2023/10/17 01:43:42;;;;;;;8.95;4.50;;;17.90;91.20;;;;;;4591105;19;20005;-70
2023/10/17 01:45:16;;;;;;;8.40;4.85;;;17.90;91.20;;;;;;4592193;19;20007;-70
2023/10/17 01:46:52;;;;;;;10.45;5.75;;;17.90;91.20;;;;;;4591916;19;20007;-70
2023/10/17 01:48:26;;;;;;;7.55;4.80;;;17.90;91.20;;;;;;4590467;19;20009;-70
2023/10/17 01:50:01;;;;;;;7.45;4.63;;;17.90;91.20;;;;;;4591676;19;20002;-70
2023/10/17 01:51:36;;;;;;;8.45;5.25;;;17.90;91.30;;;;;;4591807;19;20006;-70
2023/10/17 01:53:13;;;;;;;8.02;5.05;;;17.90;91.20;;;;;;4590897;19;20402;-70
2023/10/17 01:54:48;;;;;;;9.45;5.65;;;17.90;91.20;;;;;;4591718;19;20013;-70
2023/10/17 01:56:29;;;;;;;8.30;5.18;;;17.90;91.30;;;;;;4591716;19;20006;-70
2023/10/17 01:58:15;;;;;;;9.95;6.53;;;17.90;91.20;;;;;;4591664;19;20302;-70
2023/10/17 01:59:51;;;;;;;8.82;6.40;;;17.90;91.30;;;;;;4590168;19;20036;-70
2023/10/17 02:01:31;;;;;;;9.32;6.43;;;17.90;91.30;;;;;;4591073;19;20445;-70
2023/10/17 02:03:12;;;;;;;9.27;6.30;;;17.90;91.30;;;;;;4590540;19;20010;-70
2023/10/17 02:04:49;;;;;;;10.73;6.90;;;17.90;91.30;;;;;;4591357;19;20007;-70
2023/10/17 02:06:27;;;;;;;12.15;7.00;;;17.90;91.30;;;;;;4590303;19;20010;-70
2023/10/17 02:08:01;;;;;;;9.07;6.43;;;17.90;91.40;;;;;;4591256;19;19999;-70
2023/10/17 02:11:23;;;;;;;9.70;6.60;;;17.90;91.40;;;;;;4591326;19;20041;-70
2023/10/17 02:13:00;;;;;;;8.32;6.30;;;17.90;91.30;;;;;;4588648;19;20011;-70
2023/10/17 02:14:34;;;;;;;8.90;6.45;;;17.90;91.30;;;;;;4590942;19;20336;-70
2023/10/17 02:16:11;;;;;;;9.00;5.28;;;17.90;91.30;;;;;;4591413;19;20007;-70
2023/10/17 02:17:45;;;;;;;9.13;6.40;;;17.90;91.40;;;;;;4591367;19;20001;-70
2023/10/17 02:19:25;;;;;;;10.38;7.22;;;17.90;91.40;;;;;;4592686;19;20006;-70
2023/10/17 02:21:12;;;;;;;11.52;6.88;;;17.90;91.30;;;;;;4594807;19;20421;-70
2023/10/17 02:22:49;;;;;;;8.52;5.78;;;17.90;91.30;;;;;;4594408;19;20091;-70
2023/10/17 02:24:29;;;;;;;7.93;5.93;;;17.90;91.30;;;;;;4596002;19;20029;-70
2023/10/17 02:26:09;;;;;;;10.20;5.95;;;17.90;91.20;;;;;;4596014;19;20019;-70
2023/10/17 02:27:45;;;;;;;9.52;6.30;;;17.90;91.20;;;;;;4595912;19;20422;-70
2023/10/17 02:29:23;;;;;;;10.25;5.80;;;17.90;91.20;;;;;;4595522;19;20014;-70
2023/10/17 02:30:59;;;;;;;9.50;6.13;;;17.90;91.30;;;;;;4595945;19;20030;-70
2023/10/17 02:32:35;;;;;;;10.63;6.35;;;17.90;91.30;;;;;;4594770;19;20108;-70
2023/10/17 02:34:12;;;;;;;12.63;7.35;;;17.90;91.30;;;;;;4596274;19;20004;-70
2023/10/17 02:36:08;;;;;;;11.13;7.05;;;17.90;91.30;;;;;;4595869;19;20532;-70
2023/10/17 02:37:47;;;;;;;11.38;7.20;;;17.90;91.30;;;;;;4594754;19;20106;-70
2023/10/17 02:39:21;;;;;;;15.75;8.80;;;17.90;91.30;;;;;;4595739;19;20086;-70
2023/10/17 02:40:58;;;;;;;17.00;9.48;;;17.90;91.30;;;;;;4595506;19;20452;-70
2023/10/17 02:42:32;;;;;;;22.10;12.00;;;17.90;91.30;;;;;;4594988;19;20019;-70
2023/10/17 02:44:08;;;;;;;20.48;11.07;;;17.90;91.30;;;;;;4593910;19;20006;-70
2023/10/17 02:45:43;;;;;;;19.58;12.10;;;17.90;91.30;;;;;;4595672;19;19998;-70
2023/10/17 02:47:20;;;;;;;16.77;11.68;;;17.90;91.30;;;;;;4593945;19;20003;-70
2023/10/17 02:48:55;;;;;;;13.77;9.80;;;17.80;91.30;;;;;;4595243;19;20029;-70
2023/10/17 02:52:06;;;;;;;13.13;9.48;;;17.80;91.20;;;;;;4595032;19;20003;-70
2023/10/17 02:53:43;;;;;;;12.55;7.85;;;17.80;91.20;;;;;;4594918;19;20021;-70
2023/10/17 02:55:29;;;;;;;12.27;7.50;;;17.80;91.20;;;;;;4593840;19;20011;-70
2023/10/17 02:57:08;;;;;;;11.32;7.97;;;17.80;91.20;;;;;;4595160;19;20378;-70
2023/10/17 02:58:46;;;;;;;12.38;9.63;;;17.80;91.20;;;;;;4595351;19;20433;-70
2023/10/17 03:00:33;;;;;;;10.43;7.60;;;17.80;91.20;;;;;;4594930;19;20010;-70
2023/10/17 03:02:08;;;;;;;8.88;6.80;;;17.90;91.20;;;;;;4594814;19;20013;-70
2023/10/17 03:03:42;;;;;;;11.93;7.07;;;17.90;91.20;;;;;;4593698;19;20010;-70
2023/10/17 03:05:18;;;;;;;10.57;7.38;;;17.80;91.10;;;;;;4594957;19;20007;-70
2023/10/17 03:06:54;;;;;;;9.40;8.02;;;17.80;91.10;;;;;;4595086;19;20058;-70
2023/10/17 03:08:29;;;;;;;9.82;8.45;;;17.80;91.00;;;;;;4594838;19;20014;-70
2023/10/17 03:10:05;;;;;;;10.27;8.45;;;17.80;91.00;;;;;;4594990;19;20033;-70
2023/10/17 03:11:47;;;;;;;11.80;8.82;;;17.80;90.90;;;;;;4593621;19;20363;-70
2023/10/17 03:16:39;;;;;;;13.60;10.20;;;17.80;90.70;;;;;;4594671;19;20014;-70
2023/10/17 03:18:16;;;;;;;13.27;9.10;;;17.80;90.70;;;;;;4594690;19;20013;-70
2023/10/17 03:19:53;;;;;;;11.85;8.02;;;17.80;90.70;;;;;;4594888;19;20016;-70
2023/10/17 03:21:34;;;;;;;9.88;7.57;;;17.80;90.70;;;;;;4594502;19;20314;-70
2023/10/17 03:23:10;;;;;;;12.02;7.70;;;17.80;90.70;;;;;;4591966;19;20425;-70
2023/10/17 03:24:46;;;;;;;11.55;7.53;;;17.80;90.60;;;;;;4594327;19;20013;-70
2023/10/17 03:26:22;;;;;;;9.57;6.20;;;17.80;90.60;;;;;;4594991;19;20006;-70
2023/10/17 03:27:56;;;;;;;10.68;6.32;;;17.80;90.70;;;;;;4594943;19;20009;-70
2023/10/17 03:29:34;;;;;;;10.13;6.53;;;17.80;90.70;;;;;;4594869;19;20003;-70
2023/10/17 03:31:20;;;;;;;10.95;5.97;;;17.80;90.70;;;;;;4593142;19;20011;-70
2023/10/17 03:33:05;;;;;;;9.70;5.53;;;17.80;90.70;;;;;;4592173;19;20306;-70
2023/10/17 03:34:52;;;;;;;8.48;6.28;;;17.80;90.70;;;;;;4594949;19;19999;-70
2023/10/17 03:38:16;;;;;;;12.88;9.25;;;17.80;90.60;;;;;;4594598;19;20426;-70
2023/10/17 03:40:01;;;;;;;12.32;8.30;;;17.80;90.50;;;;;;4594764;19;20007;-70
2023/10/17 03:41:40;;;;;;;10.18;7.18;;;17.80;90.50;;;;;;4592937;19;20023;-71
2023/10/17 03:43:14;;;;;;;9.65;6.50;;;17.80;90.40;;;;;;4592617;19;20006;-69
2023/10/17 03:44:54;;;;;;;9.68;7.38;;;17.80;90.30;;;;;;4594411;19;20010;-71
2023/10/17 03:46:35;;;;;;;9.80;6.45;;;17.80;90.30;;;;;;4594291;19;20006;-70
2023/10/17 03:48:20;;;;;;;11.32;6.10;;;17.90;90.30;;;;;;4593099;19;20010;-70
2023/10/17 03:49:56;;;;;;;9.57;6.45;;;17.90;90.20;;;;;;4592537;19;20006;-72
2023/10/17 03:51:31;;;;;;;10.65;7.80;;;18.10;90.10;;;;;;4593549;19;20017;-71
2023/10/17 03:53:07;;;;;;;13.05;9.02;;;18.10;90.00;;;;;;4592621;19;20007;-70
2023/10/17 03:54:44;;;;;;;13.55;11.73;;;18.20;89.80;;;;;;4592503;19;20066;-70
2023/10/17 03:56:23;;;;;;;14.55;11.45;;;18.30;89.90;;;;;;4593327;19;20010;-70
2023/10/17 03:58:00;;;;;;;13.85;10.52;;;18.30;89.60;;;;;;4592365;19;20013;-71
2023/10/17 03:59:40;;;;;;;13.20;10.25;;;18.40;89.30;;;;;;4593376;19;20006;-70
2023/10/17 04:01:18;;;;;;;13.02;9.57;;;18.40;89.10;;;;;;4593630;19;20439;-70
2023/10/17 04:02:54;;;;;;;13.43;11.52;;;18.40;88.70;;;;;;4591281;19;20011;-70
2023/10/17 04:04:36;;;;;;;12.75;10.15;;;18.40;88.50;;;;;;4593254;19;20317;-70
2023/10/17 04:07:51;;;;;;;13.15;9.90;;;18.50;88.10;;;;;;4593442;19;20352;-70
2023/10/17 04:09:30;;;;;;;12.68;10.48;;;18.40;88.20;;;;;;4591970;19;20014;-75
2023/10/17 04:11:25;;;;;;;11.95;9.65;;;18.50;88.00;;;;;;4592486;19;20028;-69
2023/10/17 04:13:16;;;;;;;10.20;7.97;;;18.40;87.90;;;;;;4591676;19;20018;-71
2023/10/17 04:14:59;;;;;;;8.32;6.90;;;18.50;88.10;;;;;;4593337;19;20007;-71
2023/10/17 04:16:34;;;;;;;11.07;7.93;;;18.40;88.00;;;;;;4593212;19;20029;-71
2023/10/17 04:18:10;;;;;;;11.95;7.00;;;18.40;88.40;;;;;;4593148;19;20023;-70
2023/10/17 04:19:48;;;;;;;11.57;8.20;;;18.40;87.60;;;;;;4593293;19;20065;-70
2023/10/17 04:21:36;;;;;;;12.18;8.05;;;18.40;87.60;;;;;;4594171;19;20068;-70
2023/10/17 04:23:21;;;;;;;10.98;7.65;;;18.40;87.40;;;;;;4593111;19;20074;-71
2023/10/17 04:25:00;;;;;;;12.23;6.93;;;18.40;87.40;;;;;;4594236;19;20020;-71
2023/10/17 04:26:43;;;;;;;8.73;6.40;;;18.40;87.40;;;;;;4592773;19;20003;-70
2023/10/17 04:28:17;;;;;;;9.05;7.03;;;18.40;87.50;;;;;;4593862;19;20017;-71
2023/10/17 04:29:59;;;;;;;11.00;7.13;;;18.30;87.30;;;;;;4594269;19;20302;-70
2023/10/17 04:31:36;;;;;;;8.50;6.45;;;18.40;87.30;;;;;;4594284;19;20035;-71
2023/10/17 04:33:19;;;;;;;9.93;6.05;;;18.30;87.20;;;;;;4593038;19;20030;-71
2023/10/17 04:35:01;;;;;;;9.77;6.82;;;18.30;87.20;;;;;;4592566;19;20516;-71
2023/10/17 04:36:41;;;;;;;10.27;6.68;;;18.30;87.10;;;;;;4592892;19;20007;-70
2023/10/17 04:38:27;;;;;;;10.25;6.85;;;18.30;87.00;;;;;;4592571;19;20169;-70
2023/10/17 04:43:45;;;;;;;8.93;6.05;;;18.30;86.80;;;;;;4591561;19;20011;-70
2023/10/17 04:45:23;;;;;;;8.82;6.32;;;18.30;86.70;;;;;;4593823;19;20006;-70
2023/10/17 04:48:36;;;;;;;7.53;5.60;;;18.20;86.50;;;;;;4592580;19;20074;-71
2023/10/17 04:50:17;;;;;;;7.95;5.90;;;18.20;86.50;;;;;;4593459;19;20013;-71
2023/10/17 04:51:52;;;;;;;8.43;5.63;;;18.20;86.60;;;;;;4593483;19;20017;-71
2023/10/17 04:53:35;;;;;;;8.48;6.00;;;18.20;86.60;;;;;;4593391;19;20017;-71
2023/10/17 04:55:18;;;;;;;8.65;6.22;;;18.20;86.60;;;;;;4592091;19;20458;-71
2023/10/17 04:56:59;;;;;;;10.65;6.28;;;18.20;86.60;;;;;;4593305;19;20291;-71
2023/10/17 04:58:48;;;;;;;11.25;6.20;;;18.10;86.70;;;;;;4592083;19;20010;-71
2023/10/17 05:03:52;;;;;;;13.35;8.50;;;18.10;87.00;;;;;;4592452;19;20010;-71
2023/10/17 05:05:41;;;;;;;15.18;9.60;;;18.10;87.10;;;;;;4593343;19;20007;-71
2023/10/17 05:07:16;;;;;;;14.40;9.70;;;18.10;87.10;;;;;;4593264;19;20451;-71
2023/10/17 06:33:04;;;;;;;10.50;7.53;;;18.60;89.00;;;;;;4612240;19;20036;-71
2023/10/17 06:34:42;;;;;;;13.38;8.07;;;18.60;89.10;;;;;;4613938;19;20007;-71
2023/10/17 06:36:28;;;;;;;10.63;7.43;;;18.60;89.20;;;;;;4612659;19;20124;-71
2023/10/17 06:38:04;;;;;;;10.82;7.97;;;18.60;89.20;;;;;;4613799;19;20006;-70
2023/10/17 06:39:57;;;;;;;10.57;8.50;;;18.70;89.40;;;;;;4614213;19;20438;-71
2023/10/17 06:41:40;;;;;;;14.02;9.70;;;18.70;89.40;;;;;;4612416;19;20471;-71
2023/10/17 06:43:27;;;;;;;12.18;9.40;;;18.70;89.40;;;;;;4611643;19;20013;-71
2023/10/17 06:45:18;;;;;;;11.32;9.27;;;18.80;89.40;;;;;;4613949;19;20010;-71
2023/10/17 06:46:58;;;;;;;14.45;11.55;;;18.80;89.40;;;;;;4612598;19;20009;-71
2023/10/17 06:48:36;;;;;;;15.00;13.40;;;18.80;89.60;;;;;;4613550;19;20007;-71
2023/10/17 06:52:07;;;;;;;13.65;12.20;;;18.80;89.60;;;;;;4614371;19;20002;-71
2023/10/17 06:53:41;;;;;;;15.93;10.45;;;18.70;89.70;;;;;;4614193;19;20023;-70
2023/10/17 06:55:38;;;;;;;14.77;10.75;;;18.70;89.90;;;;;;4614501;19;20013;-71
2023/10/17 06:57:23;;;;;;;16.35;9.55;;;18.70;90.00;;;;;;4612523;19;20007;-71
2023/10/17 06:59:04;;;;;;;11.63;9.00;;;18.70;90.10;;;;;;4613448;19;20006;-70
2023/10/17 07:00:51;;;;;;;11.63;8.38;;;18.60;90.10;;;;;;4613877;19;20007;-71
2023/10/17 07:02:34;;;;;;;11.25;8.18;;;18.70;90.20;;;;;;4611509;19;20316;-71
2023/10/17 07:04:11;;;;;;;11.75;8.43;;;18.60;90.20;;;;;;4613712;19;20066;-70
2023/10/17 07:05:54;;;;;;;11.30;8.10;;;18.70;90.30;;;;;;4612272;19;20020;-71
2023/10/17 07:07:42;;;;;;;13.38;9.10;;;18.70;90.40;;;;;;4613010;19;20305;-71
2023/10/17 07:09:18;;;;;;;14.68;12.57;;;18.60;90.60;;;;;;4613357;19;19999;-71
2023/10/17 07:11:04;;;;;;;14.68;11.07;;;18.60;90.50;;;;;;4612238;19;20471;-70
2023/10/17 07:12:40;;;;;;;11.43;8.43;;;18.60;90.60;;;;;;4610543;19;20007;-70
2023/10/17 07:14:26;;;;;;;11.57;7.22;;;18.60;90.60;;;;;;4612755;19;20002;-71
2023/10/17 07:16:11;;;;;;;12.65;8.30;;;18.60;90.60;;;;;;4611724;19;20010;-71
2023/10/17 07:18:09;;;;;;;12.38;7.95;;;18.60;90.60;;;;;;4613146;19;20464;-70
2023/10/17 07:19:57;;;;;;;11.98;8.68;;;18.60;91.00;;;;;;4613046;19;20029;-70
2023/10/17 07:21:43;;;;;;;10.13;7.07;;;18.60;90.70;;;;;;4613149;19;20023;-71
2023/10/17 07:23:27;;;;;;;10.05;7.10;;;18.50;90.80;;;;;;4613070;19;20107;-71
2023/10/17 07:25:16;;;;;;;10.70;7.45;;;18.50;90.90;;;;;;4612692;19;20356;-71
2023/10/17 07:26:54;;;;;;;12.13;8.40;;;18.50;91.00;;;;;;4611722;19;20025;-71
2023/10/17 07:28:31;;;;;;;11.40;7.45;;;18.50;91.00;;;;;;4613468;19;20087;-71
2023/10/17 07:30:24;;;;;;;11.35;8.27;;;18.50;91.10;;;;;;4613364;19;20070;-71
2023/10/17 07:32:15;;;;;;;12.18;8.68;;;18.50;91.20;;;;;;4612514;19;20433;-71
2023/10/17 07:34:36;;;;;;;11.45;8.23;;;18.40;91.10;;;;;;4612869;19;20006;-71
2023/10/17 07:35:58;;;;;;;12.45;8.60;;;18.50;91.20;;;;;;4610633;19;20043;-70
2023/10/17 07:37:48;;;;;;;11.52;8.27;;;18.40;91.20;;;;;;4610740;19;20009;-71
2023/10/17 07:39:36;;;;;;;10.45;8.50;;;18.50;91.30;;;;;;4593381;19;20413;-71
2023/10/17 07:41:13;;;;;;;11.70;8.52;;;18.50;91.50;;;;;;4593349;19;20007;-75
2023/10/17 07:42:48;;;;;;;13.20;8.82;;;18.50;91.20;;;;;;4593536;19;20006;-71
2023/10/17 07:44:23;;;;;;;12.75;8.93;;;18.50;91.20;;;;;;4595271;19;20076;-73
2023/10/17 07:46:06;;;;;;;11.43;8.38;;;18.50;91.20;;;;;;4592746;19;20007;-75
2023/10/17 07:47:44;;;;;;;14.48;9.10;;;18.50;91.30;;;;;;4594325;19;20006;-72
2023/10/17 07:49:30;;;;;;;11.88;8.02;;;18.50;91.40;;;;;;4594536;19;20010;-71
2023/10/17 07:51:06;;;;;;;10.77;7.43;;;18.50;91.40;;;;;;4595214;19;20106;-70
2023/10/17 07:52:50;;;;;;;12.70;8.35;;;18.50;91.30;;;;;;4593387;19;20333;-71
2023/10/17 07:54:28;;;;;;;11.93;7.78;;;18.50;91.50;;;;;;4593369;19;20007;-71
2023/10/17 07:56:12;;;;;;;12.50;8.48;;;18.60;91.50;;;;;;4594423;19;20018;-72
2023/10/17 07:57:51;;;;;;;10.27;7.40;;;18.60;91.50;;;;;;4594689;19;20030;-73
2023/10/17 07:59:32;;;;;;;14.73;8.77;;;18.50;91.50;;;;;;4594675;19;20033;-72
2023/10/17 08:01:16;;;;;;;;;;;18.50;91.60;;;;;;4595315;19;20011;-72
2023/10/17 08:02:55;;;;;;;12.38;8.10;;;18.50;91.70;;;;;;4593130;19;19922;-71
2023/10/17 08:04:35;;;;;;;11.35;8.15;;;18.50;91.70;;;;;;4594263;19;20448;-72
2023/10/17 08:06:12;;;;;;;12.57;7.60;;;18.50;91.80;;;;;;4593950;19;20006;-71
2023/10/17 08:07:49;;;;;;;9.40;7.22;;;18.50;91.80;;;;;;4594453;19;19998;-70
2023/10/17 08:11:08;;;;;;;9.60;7.88;;;18.40;91.80;;;;;;4594136;19;20007;-72
2023/10/17 08:12:42;;;;;;;11.07;7.18;;;18.40;91.90;;;;;;4593123;19;20417;-71
2023/10/17 08:14:22;;;;;;;11.30;7.60;;;18.40;91.90;;;;;;4594077;19;20003;-72
2023/10/17 08:16:16;;;;;;;9.95;7.97;;;18.40;92.00;;;;;;4594180;19;20006;-72
2023/10/17 08:17:53;;;;;;;10.48;7.10;;;18.40;92.10;;;;;;4592990;19;20014;-72
2023/10/17 08:20:00;;;;;;;12.55;7.82;;;18.40;92.10;;;;;;4593612;19;20082;-73
2023/10/17 08:21:40;;;;;;;8.77;6.55;;;18.40;92.10;;;;;;4593707;19;20010;-72
2023/10/17 08:23:19;;;;;;;8.82;6.47;;;18.40;92.10;;;;;;4591050;19;20007;-72
2023/10/17 08:24:53;;;;;;;10.10;6.50;;;18.40;92.20;;;;;;4593815;19;20007;-72
2023/10/17 08:26:31;;;;;;;10.20;5.95;;;18.40;92.20;;;;;;4591817;19;20437;-72
2023/10/17 08:28:31;;;;;;;9.82;7.18;;;18.40;92.20;;;;;;4592398;19;20039;-73
2023/10/17 08:30:14;;;;;;;11.90;7.57;;;18.40;92.20;;;;;;4593508;19;20049;-72
2023/10/17 08:31:51;;;;;;;9.05;6.63;;;18.40;92.20;;;;;;4592479;19;20066;-73
2023/10/17 08:33:36;;;;;;;10.80;7.25;;;18.30;92.20;;;;;;4593460;19;20002;-72
2023/10/17 08:35:36;;;;;;;14.32;7.18;;;18.40;92.20;;;;;;4592251;19;20329;-72
2023/10/17 08:37:26;;;;;;;11.02;7.22;;;18.30;92.30;;;;;;4591984;19;20010;-72
2023/10/17 08:39:03;;;;;;;8.55;6.75;;;18.40;92.30;;;;;;4593390;19;20422;-73
2023/10/17 08:42:14;;;;;;;10.73;7.05;;;18.40;92.30;;;;;;4592866;19;20010;-73
2023/10/17 08:43:48;;;;;;;12.32;7.28;;;18.40;92.40;;;;;;4593554;19;20035;-72
2023/10/17 08:45:26;;;;;;;12.40;7.75;;;18.40;92.10;;;;;;4593916;19;20003;-75
2023/10/17 08:47:03;;;;;;;9.95;6.93;;;18.40;92.20;;;;;;4592250;19;20086;-72
2023/10/17 08:48:38;;;;;;;10.50;6.65;;;18.40;92.30;;;;;;4591746;19;20014;-72
2023/10/17 08:50:15;;;;;;;12.57;7.03;;;18.40;92.20;;;;;;4590427;19;20311;-73
2023/10/17 08:51:50;;;;;;;9.93;6.40;;;18.40;92.20;;;;;;4593048;19;20022;-72
2023/10/17 08:53:25;;;;;;;9.63;6.22;;;18.50;92.20;;;;;;4591375;19;20033;-73
2023/10/17 08:54:59;;;;;;;9.20;6.70;;;18.40;92.20;;;;;;4591348;19;20022;-73
2023/10/17 08:56:36;;;;;;;11.15;6.85;;;18.40;92.20;;;;;;4592614;19;20013;-73
2023/10/17 08:58:11;;;;;;;10.63;7.38;;;18.50;92.10;;;;;;4593101;19;20013;-72
2023/10/17 09:01:20;;;;;;;9.90;6.82;;;18.50;92.30;;;;;;4593266;19;20006;-72
2023/10/17 09:03:08;;;;;;;11.65;7.15;;;18.50;92.30;;;;;;4591769;19;20322;-73
2023/10/17 09:04:46;;;;;;;8.85;6.40;;;18.50;92.30;;;;;;4592642;19;20007;-73
2023/10/17 09:07:58;;;;;;;8.15;6.13;;;18.50;92.20;;;;;;4591607;19;20015;-73
2023/10/17 09:09:33;;;;;;;9.15;5.97;;;18.40;92.20;;;;;;4592248;19;20079;-74
2023/10/17 09:11:09;;;;;;;11.05;6.53;;;18.40;92.20;;;;;;4592701;19;20010;-73
2023/10/17 09:12:43;;;;;;;9.15;5.70;;;18.40;92.20;;;;;;4591446;19;20014;-73
2023/10/17 09:14:25;;;;;;;10.82;5.90;;;18.40;92.20;;;;;;4592446;19;20028;-74
2023/10/17 09:16:08;;;;;;;9.80;6.65;;;18.50;92.10;;;;;;4591070;19;20010;-73
2023/10/17 09:18:21;;;;;;;10.82;6.68;;;18.40;92.10;;;;;;4592312;19;20030;-73
2023/10/17 09:19:57;;;;;;;10.85;6.38;;;18.40;92.20;;;;;;4591483;19;20390;-73
2023/10/17 09:21:33;;;;;;;9.73;6.15;;;18.40;92.00;;;;;;4591424;19;20007;-73
2023/10/17 09:23:28;;;;;;;9.52;6.45;;;18.40;91.90;;;;;;4590695;19;20018;-73
2023/10/17 09:25:22;;;;;;;10.52;5.85;;;18.40;91.90;;;;;;4591296;19;20076;-73
2023/10/17 09:26:58;;;;;;;10.85;6.50;;;18.40;91.80;;;;;;4591082;19;20460;-74
2023/10/17 09:28:33;;;;;;;11.18;6.47;;;18.40;91.80;;;;;;4592440;19;20030;-73
2023/10/17 09:30:12;;;;;;;9.57;6.43;;;18.40;91.80;;;;;;4592526;19;20016;-73
2023/10/17 09:31:47;;;;;;;10.43;6.60;;;18.30;91.90;;;;;;4591361;19;19999;-73
2023/10/17 09:33:33;;;;;;;9.38;6.25;;;18.30;91.80;;;;;;4590834;19;20022;-73
2023/10/17 09:35:18;;;;;;;11.50;7.05;;;18.30;91.80;;;;;;4592337;19;20007;-73
2023/10/17 09:36:58;;;;;;;10.95;6.72;;;18.30;91.80;;;;;;4590927;19;20480;-73
2023/10/17 09:38:43;;;;;;;10.60;6.88;;;18.30;91.90;;;;;;4590869;19;20444;-73
2023/10/17 09:40:25;;;;;;;12.50;7.88;;;18.30;92.00;;;;;;4590798;19;20010;-73
2023/10/17 09:42:05;;;;;;;12.48;7.40;;;18.30;92.00;;;;;;4590140;19;20013;-73
2023/10/17 09:43:41;;;;;;;12.68;8.07;;;18.30;92.00;;;;;;4590598;19;20425;-73
2023/10/17 09:45:17;;;;;;;11.82;7.70;;;18.30;92.00;;;;;;4591754;19;20307;-73
2023/10/17 09:46:56;;;;;;;9.65;6.38;;;18.30;92.00;;;;;;4591323;19;20010;-73
2023/10/17 10:01:57;;;;;;;12.95;7.57;;;18.20;92.20;;;;;;4379709;19;4511688;-71
2023/10/17 10:03:35;;;;;;;12.20;7.63;;;18.10;92.40;;;;;;4614012;19;20006;-71
2023/10/17 10:05:28;;;;;;;11.30;7.80;;;18.10;92.30;;;;;;4612412;19;20006;-72
2023/10/17 10:07:23;;;;;;;10.05;6.90;;;18.10;92.30;;;;;;4612500;19;20006;-72
2023/10/17 10:09:14;;;;;;;13.73;7.15;;;18.10;92.20;;;;;;4612522;19;20287;-72
2023/10/17 10:10:52;;;;;;;9.98;6.55;;;18.10;92.20;;;;;;4613301;19;20022;-72
2023/10/17 10:12:27;;;;;;;10.60;6.85;;;18.10;92.00;;;;;;4612112;19;20010;-72
2023/10/17 10:14:04;;;;;;;9.70;6.78;;;18.10;91.90;;;;;;4612016;19;20018;-72
2023/10/17 10:16:07;;;;;;;13.85;7.35;;;18.10;92.10;;;;;;4611982;19;20430;-72
2023/10/17 10:17:49;;;;;;;11.00;6.63;;;18.10;92.20;;;;;;4611010;19;20006;-72
2023/10/17 10:19:46;;;;;;;11.27;7.53;;;18.10;92.20;;;;;;4611391;19;20108;-72
2023/10/17 10:21:22;;;;;;;11.07;7.28;;;18.10;92.20;;;;;;4610410;19;20014;-71
2023/10/17 10:22:56;;;;;;;17.27;11.68;;;18.10;92.20;;;;;;4610088;19;20117;-71
2023/10/17 10:24:36;;;;;;;17.80;10.07;;;18.10;92.20;;;;;;4611913;19;20302;-71
2023/10/17 10:26:17;;;;;;;14.45;9.35;;;18.10;92.40;;;;;;4612036;19;20035;-71
2023/10/17 10:28:12;;;;;;;10.30;7.40;;;18.20;92.40;;;;;;4611789;19;20021;-71
2023/10/17 10:29:52;;;;;;;12.48;7.28;;;18.20;92.40;;;;;;4611451;19;20035;-71
2023/10/17 10:31:27;;;;;;;8.20;5.60;;;18.20;92.60;;;;;;4611676;19;20010;-71
2023/10/17 10:33:02;;;;;;;10.32;5.93;;;18.20;92.50;;;;;;4609644;19;20027;-71
2023/10/17 10:34:39;;;;;;;9.13;5.72;;;18.20;92.70;;;;;;4611684;19;20007;-71
2023/10/17 10:36:12;;;;;;;10.02;5.20;;;18.20;92.20;;;;;;4611405;19;20489;-72
2023/10/17 10:37:56;;;;;;;7.25;4.57;;;18.10;92.10;;;;;;4611431;19;20017;-71
2023/10/17 10:39:33;;;;;;;10.48;5.90;;;18.10;91.80;;;;;;4611633;19;19998;-71
2023/10/17 10:41:08;;;;;;;8.57;5.88;;;18.10;92.00;;;;;;4610315;19;20457;-73
2023/10/17 10:42:47;;;;;;;12.63;8.45;;;18.10;92.10;;;;;;4610290;19;19998;-71
2023/10/17 10:44:22;;;;;;;12.13;6.90;;;18.10;92.30;;;;;;4611626;19;20442;-71
2023/10/17 10:45:56;;;;;;;12.32;6.65;;;18.10;92.10;;;;;;4611282;19;20007;-71
2023/10/17 10:47:31;;;;;;;11.40;6.95;;;18.10;92.10;;;;;;4611339;19;20390;-71
2023/10/17 10:49:07;;;;;;;9.77;5.95;;;18.10;92.20;;;;;;4611204;19;20021;-72
2023/10/17 10:50:42;;;;;;;11.02;4.95;;;18.10;92.10;;;;;;4611074;19;20106;-71
2023/10/17 10:52:24;;;;;;;7.63;4.55;;;18.20;92.30;;;;;;4610810;19;20010;-70
2023/10/17 10:54:00;;;;;;;6.85;3.80;;;18.20;92.40;;;;;;4611245;19;20037;-73
2023/10/17 10:55:34;;;;;;;7.15;4.30;;;18.20;92.20;;;;;;4612991;19;20010;-72